Gilbertsville, KY (42044)

11:29 PM CDT on October 24, 2014 (GMT -0500)
Calvert City | Change Station
CLOSE
Current Station
Personal Weather Station
Location: Calvert City, KY
Elevation: 364 ft
Nearby Weather Stations

Elev 364 ft 37.02 °N, 88.33 °W | Updated 14 seconds ago

Clear
Clear
49.8 °F
Feels Like 50 °F
N
0.0
Wind Variable Wind from SE
Gusts 0.0 mph

Today
High -- | Low -- °F
--% Chance of Precip.
Yesterday
High -- | Low -- °F
Precip. -- in
7:08 AM 6:04 PM
New Moon, 2% visible
Pressure 30.08 in
Visibility 6.0 miles
Clouds Clear
Windchill 50 °F
Dew Point 40 °F
Humidity 69%
Rainfall 0.00 in
Snow Depth Not available.
UV 0 out of 12
Pollen 1.80 out of 12
Air Quality Not available.
Flu Activity Sporadic
METAR KCEY 250415Z AUTO 23004KT 6SM CLR 11/10 A3008 RMK AO1

More Conditions Fewer Conditions

Pressure 30.08 in
Visibility 6.0 miles
Clouds Clear
Windchill 50 °F
Dew Point 40 °F
Humidity 69%
Rainfall 0.00 in
Snow Depth Not available.
UV 0 out of 12
Pollen 1.80 out of 12
Air Quality Not available.
Flu Activity Sporadic
METAR KCEY 250415Z AUTO 23004KT 6SM CLR 11/10 A3008 RMK AO1

More Conditions Fewer Conditions

10-Day Weather Forecast

Almanac

Astronomy

Oct. 24, 2014 Rise Set
Actual Time 7:08 AM CDT 6:04 PM CDT
Civil Twilight 6:42 AM CDT 6:31 PM CDT
Nautical Twilight 6:12 AM CDT 7:01 PM CDT
Astronomical Twilight 5:42 AM CDT 7:31 PM CDT
Moon 7:47 AM CDT (10/24) 6:45 PM CDT (10/24)
Length of Visible Light 11h 48m
Length of Day
10h 55m
Tomorrow will be 2m 12s shorter.
New Moon, 2% of the Moon is Illuminated
Oct 25
New Moon
Oct 30
First Quarter
Nov 6
Full
Nov 14
Last Quarter
Nov 22
New

Yesterday's Extremes

State Highs State Lows

Community

WunderPhotos

Upload Photos

1,764,781 photos uploaded!

Nearby

Snow Depth

Station Depth Elevation
No new snow has been reported.

Earthquake Activity

City Distance Mag. Time & Date
No recent earthquake activity has been reported nearby.
Minimum magnitude displayed is 2.5.

Coastal Water Temperatures

Place Temperature
No Stations Reporting

Nearby Weather Stations